createdAt,value
2023-03-15T00:00:39.719Z,3.20
2023-03-15T00:01:39.734Z,6.30
2023-03-15T00:02:39.740Z,3.50
2023-03-15T00:03:39.733Z,3.30
2023-03-15T00:04:39.653Z,3.80
2023-03-15T00:05:39.652Z,3.20
2023-03-15T00:06:39.662Z,6.70
2023-03-15T00:07:39.627Z,6.80
2023-03-15T00:08:39.611Z,8.70
2023-03-15T00:09:39.593Z,4.90
2023-03-15T00:10:39.578Z,2.90
2023-03-15T00:11:39.601Z,4.90
2023-03-15T00:12:39.564Z,9.60
2023-03-15T00:13:39.550Z,3.10
2023-03-15T00:14:39.536Z,5.60
2023-03-15T00:15:39.525Z,2.40
2023-03-15T00:16:39.541Z,7.10
2023-03-15T00:17:39.492Z,5.30
2023-03-15T00:18:39.467Z,5.70
2023-03-15T00:19:39.468Z,5.10
2023-03-15T00:20:39.458Z,4.60
2023-03-15T00:21:39.468Z,9.10
2023-03-15T00:22:39.436Z,1.50
2023-03-15T00:23:39.441Z,1.80
2023-03-15T00:24:39.448Z,2.90
2023-03-15T00:25:39.418Z,4.40
2023-03-15T00:26:39.464Z,3.40
2023-03-15T00:27:39.402Z,11.90
2023-03-15T00:28:39.349Z,4.30
2023-03-15T00:29:39.346Z,2.90
2023-03-15T00:30:39.322Z,4.00
2023-03-15T00:31:39.431Z,6.10
2023-03-15T00:32:39.300Z,10.70
2023-03-15T00:33:39.294Z,5.40
2023-03-15T00:34:39.273Z,4.00
2023-03-15T00:35:39.269Z,3.70
2023-03-15T00:36:39.300Z,9.20
2023-03-15T00:37:39.240Z,4.40
2023-03-15T00:38:39.217Z,2.20
2023-03-15T00:39:39.209Z,7.00
2023-03-15T00:40:39.198Z,5.30
2023-03-15T00:41:39.250Z,4.30
2023-03-15T00:42:39.163Z,5.00
2023-03-15T00:43:39.156Z,7.90
2023-03-15T00:44:39.155Z,4.40
2023-03-15T00:45:39.143Z,7.40
2023-03-15T00:46:39.216Z,4.10
2023-03-15T00:47:39.109Z,1.90
2023-03-15T00:48:39.093Z,5.40
2023-03-15T00:49:39.079Z,6.20
2023-03-15T00:50:39.074Z,4.10
2023-03-15T00:51:39.055Z,3.20
2023-03-15T00:52:39.075Z,2.30
2023-03-15T00:53:39.046Z,5.70
2023-03-15T00:54:39.015Z,10.30
2023-03-15T00:55:39.009Z,6.10
2023-03-15T00:56:38.987Z,2.10
2023-03-15T00:57:39.003Z,3.20
2023-03-15T00:58:38.953Z,8.50
2023-03-15T00:59:38.960Z,6.60
2023-03-15T01:00:38.941Z,5.70
2023-03-15T01:01:38.964Z,2.70
2023-03-15T01:02:38.984Z,5.40
2023-03-15T01:03:39.009Z,8.60
2023-03-15T01:04:38.883Z,3.40
2023-03-15T01:05:38.887Z,3.50
2023-03-15T01:06:38.862Z,6.10
2023-03-15T01:07:38.887Z,1.60
2023-03-15T01:08:38.842Z,10.70
2023-03-15T01:09:38.824Z,1.20
2023-03-15T01:10:38.880Z,3.50
2023-03-15T01:11:38.808Z,2.00
2023-03-15T01:12:38.885Z,6.40
2023-03-15T01:13:38.771Z,13.70
2023-03-15T01:14:38.761Z,12.00
2023-03-15T01:15:38.746Z,7.10
2023-03-15T01:16:38.737Z,5.10
2023-03-15T01:17:38.750Z,5.20
2023-03-15T01:18:38.696Z,3.00
2023-03-15T01:19:38.708Z,3.00
2023-03-15T01:20:38.678Z,8.30
2023-03-15T01:21:38.669Z,9.80
2023-03-15T01:22:40.509Z,7.50
2023-03-15T01:23:38.640Z,7.80
2023-03-15T01:24:38.619Z,7.50
2023-03-15T01:25:38.612Z,1.50
2023-03-15T01:26:38.601Z,7.20
2023-03-15T01:27:38.627Z,6.70
2023-03-15T01:28:38.572Z,2.10
2023-03-15T01:29:38.561Z,7.50
2023-03-15T01:30:38.546Z,4.70
2023-03-15T01:31:38.601Z,5.00
2023-03-15T01:32:38.587Z,5.60
2023-03-15T01:33:38.510Z,3.80
2023-03-15T01:34:38.497Z,4.80
2023-03-15T01:35:38.484Z,2.40
2023-03-15T01:36:38.475Z,7.10
2023-03-15T01:37:38.494Z,1.40
2023-03-15T01:38:38.450Z,8.70
2023-03-15T01:39:38.434Z,10.10
2023-03-15T01:40:38.426Z,6.70
2023-03-15T01:41:38.419Z,4.10
2023-03-15T01:42:38.412Z,11.30
2023-03-15T01:43:38.376Z,7.90
2023-03-15T01:44:38.366Z,5.80
2023-03-15T01:45:38.372Z,0.80
2023-03-15T01:46:38.388Z,7.30
2023-03-15T01:47:38.360Z,3.70
2023-03-15T01:48:38.341Z,4.20
2023-03-15T01:49:38.306Z,1.70
2023-03-15T01:50:38.295Z,6.30
2023-03-15T01:51:38.356Z,5.70
2023-03-15T01:52:38.315Z,6.50
2023-03-15T01:53:38.243Z,8.50
2023-03-15T01:54:38.248Z,6.60
2023-03-15T01:55:38.231Z,4.30
2023-03-15T01:56:38.215Z,9.30
2023-03-15T01:57:38.224Z,5.10
2023-03-15T01:58:38.190Z,5.50
2023-03-15T01:59:38.168Z,9.40
2023-03-15T02:00:38.192Z,14.60
2023-03-15T02:01:38.163Z,6.70
2023-03-15T02:02:38.262Z,6.80
2023-03-15T02:03:38.128Z,9.30
2023-03-15T02:04:38.110Z,5.90
2023-03-15T02:05:38.113Z,2.60
2023-03-15T02:06:38.102Z,4.40
2023-03-15T02:07:38.103Z,5.70
2023-03-15T02:08:38.064Z,4.10
2023-03-15T02:09:38.045Z,3.10
2023-03-15T02:10:38.043Z,5.20
2023-03-15T02:11:38.025Z,3.70
2023-03-15T02:12:38.060Z,4.30
2023-03-15T02:13:38.001Z,5.00
2023-03-15T02:14:37.994Z,4.30
2023-03-15T02:15:37.971Z,3.10
2023-03-15T02:16:38.012Z,3.70
2023-03-15T02:17:38.003Z,2.70
2023-03-15T02:18:37.933Z,2.10
2023-03-15T02:19:37.909Z,3.70
2023-03-15T02:20:37.914Z,3.10
2023-03-15T02:21:37.893Z,1.00
2023-03-15T02:22:37.939Z,5.00
2023-03-15T02:23:37.877Z,0.70
2023-03-15T02:24:37.861Z,1.40
2023-03-15T02:25:37.838Z,3.70
2023-03-15T02:26:37.838Z,0.40
2023-03-15T02:27:37.913Z,6.00
2023-03-15T02:28:37.892Z,4.50
2023-03-15T02:29:37.795Z,3.60
2023-03-15T02:30:37.791Z,0.80
2023-03-15T02:31:37.848Z,1.00
2023-03-15T02:32:37.764Z,1.50
2023-03-15T02:33:37.740Z,3.40
2023-03-15T02:34:37.741Z,2.20
2023-03-15T02:35:37.738Z,2.20
2023-03-15T02:36:37.724Z,1.90
2023-03-15T02:37:37.712Z,3.90
2023-03-15T02:38:37.701Z,2.70
2023-03-15T02:39:37.667Z,2.70
2023-03-15T02:40:37.673Z,3.30
2023-03-15T02:41:37.636Z,1.20
2023-03-15T02:42:37.662Z,0.90
2023-03-15T02:43:37.688Z,1.60
2023-03-15T02:44:37.596Z,3.60
2023-03-15T02:45:37.645Z,0.80
2023-03-15T02:46:37.571Z,1.30
2023-03-15T02:47:37.589Z,0.30
2023-03-15T02:48:37.548Z,1.20
2023-03-15T02:49:37.535Z,0.90
2023-03-15T02:50:37.516Z,0.60
2023-03-15T02:51:37.515Z,1.40
2023-03-15T02:52:37.588Z,2.30
2023-03-15T02:53:37.477Z,1.00
2023-03-15T02:54:37.479Z,0.90
2023-03-15T02:55:37.482Z,0.50
2023-03-15T02:56:37.457Z,1.20
2023-03-15T02:57:37.462Z,0.30
2023-03-15T02:58:37.436Z,0.60
2023-03-15T02:59:37.409Z,0.60
2023-03-15T03:00:37.390Z,0.60
2023-03-15T03:01:37.473Z,1.10
2023-03-15T03:02:37.454Z,1.60
2023-03-15T03:03:37.349Z,0.70
2023-03-15T03:04:37.348Z,0.30
2023-03-15T03:05:37.343Z,1.50
2023-03-15T03:06:37.309Z,0.50
2023-03-15T03:07:37.329Z,0.50
2023-03-15T03:08:37.291Z,0.80
2023-03-15T03:09:37.287Z,0.90
2023-03-15T03:10:37.277Z,0.70
2023-03-15T03:11:37.262Z,1.00
2023-03-15T03:12:37.278Z,0.70
2023-03-15T03:13:37.222Z,0.70
2023-03-15T03:14:37.227Z,1.00
2023-03-15T03:15:37.207Z,2.20
2023-03-15T03:16:37.215Z,0.40
2023-03-15T03:17:37.199Z,0.50
2023-03-15T03:18:37.175Z,0.80
2023-03-15T03:19:37.140Z,1.40
2023-03-15T03:20:37.145Z,0.80
2023-03-15T03:21:37.113Z,0.60
2023-03-15T03:22:37.236Z,0.40
2023-03-15T03:23:37.085Z,2.00
2023-03-15T03:24:37.080Z,2.10
2023-03-15T03:25:37.089Z,0.50
2023-03-15T03:26:37.086Z,0.50
2023-03-15T03:27:37.084Z,1.00
2023-03-15T03:28:37.038Z,1.20
2023-03-15T03:29:37.010Z,1.40
2023-03-15T03:30:37.008Z,0.90
2023-03-15T03:31:36.985Z,3.20
2023-03-15T03:32:37.046Z,1.20
2023-03-15T03:33:36.955Z,1.60
2023-03-15T03:34:36.961Z,1.30
2023-03-15T03:35:36.961Z,4.20
2023-03-15T03:36:36.980Z,1.70
2023-03-15T03:37:36.937Z,2.50
2023-03-15T03:38:36.906Z,3.50
2023-03-15T03:39:36.962Z,2.30
2023-03-15T03:40:36.891Z,2.90
2023-03-15T03:41:36.848Z,2.90
2023-03-15T03:42:36.874Z,5.50
2023-03-15T03:43:36.829Z,3.00
2023-03-15T03:44:36.826Z,5.20
2023-03-15T03:45:36.815Z,3.60
2023-03-15T03:46:36.815Z,8.50
2023-03-15T03:47:36.811Z,4.00
2023-03-15T03:48:36.766Z,2.80
2023-03-15T03:49:36.802Z,6.70
2023-03-15T03:50:36.748Z,6.90
2023-03-15T03:51:36.733Z,3.20
2023-03-15T03:52:36.753Z,6.50
2023-03-15T03:53:36.692Z,12.70
2023-03-15T03:54:36.692Z,8.60
2023-03-15T03:55:36.671Z,7.30
2023-03-15T03:56:36.664Z,6.00
2023-03-15T03:57:36.679Z,7.10
2023-03-15T03:58:36.636Z,9.10
2023-03-15T03:59:36.624Z,5.90
2023-03-15T04:00:36.657Z,5.20
2023-03-15T04:01:36.604Z,6.70
2023-03-15T04:02:36.676Z,5.30
2023-03-15T04:03:36.590Z,4.70
2023-03-15T04:04:36.642Z,6.10
2023-03-15T04:05:36.550Z,5.40
2023-03-15T04:06:36.537Z,6.20
2023-03-15T04:07:36.520Z,10.90
2023-03-15T04:08:36.540Z,6.60
2023-03-15T04:09:36.497Z,6.20
2023-03-15T04:10:36.487Z,7.20
2023-03-15T04:11:36.471Z,8.00
2023-03-15T04:12:36.484Z,6.40
2023-03-15T04:13:36.481Z,8.50
2023-03-15T04:14:36.427Z,9.10
2023-03-15T04:15:36.436Z,7.70
2023-03-15T04:16:37.349Z,8.00
2023-03-15T04:17:36.389Z,8.00
2023-03-15T04:18:36.412Z,8.90
2023-03-15T04:19:36.367Z,9.50
2023-03-15T04:20:36.372Z,8.20
2023-03-15T04:21:36.335Z,15.00
2023-03-15T04:22:36.347Z,13.30
2023-03-15T04:23:36.338Z,7.60
2023-03-15T04:24:36.301Z,9.80
2023-03-15T04:25:36.287Z,6.40
2023-03-15T04:26:36.274Z,17.40
2023-03-15T04:27:40.356Z,11.40
2023-03-15T04:28:36.278Z,9.30
2023-03-15T04:29:36.244Z,8.80
2023-03-15T04:30:36.226Z,11.70
2023-03-15T04:31:36.251Z,9.80
2023-03-15T04:32:36.233Z,8.70
2023-03-15T04:33:36.260Z,8.70
2023-03-15T04:34:36.178Z,10.10
2023-03-15T04:35:36.189Z,11.20
2023-03-15T04:36:36.178Z,10.90
2023-03-15T04:37:36.145Z,15.10
2023-03-15T04:38:36.159Z,7.10
2023-03-15T04:39:36.134Z,9.50
2023-03-15T04:40:36.105Z,12.60
2023-03-15T04:41:36.093Z,17.30
2023-03-15T04:42:36.104Z,14.60
2023-03-15T04:43:36.111Z,8.30
2023-03-15T04:44:36.048Z,11.10
2023-03-15T04:45:36.042Z,10.70
2023-03-15T04:46:36.121Z,8.70
2023-03-15T04:47:36.008Z,12.70
2023-03-15T04:48:36.030Z,15.70
2023-03-15T04:49:35.990Z,8.20
2023-03-15T04:50:35.980Z,10.10
2023-03-15T04:51:35.960Z,11.10
2023-03-15T04:52:35.950Z,9.80
2023-03-15T04:53:35.960Z,12.70
2023-03-15T04:54:36.719Z,10.00
2023-03-15T04:55:35.919Z,11.40
2023-03-15T04:56:35.901Z,13.60
2023-03-15T04:57:35.879Z,8.90
2023-03-15T04:58:35.911Z,11.80
2023-03-15T04:59:35.851Z,10.10
2023-03-15T05:00:35.893Z,14.30
2023-03-15T05:01:35.834Z,10.60
2023-03-15T05:02:35.831Z,9.40
2023-03-15T05:03:35.845Z,9.10
2023-03-15T05:04:35.798Z,7.30
2023-03-15T05:05:35.792Z,8.90
2023-03-15T05:06:35.767Z,9.00
2023-03-15T05:07:35.768Z,7.80
2023-03-15T05:08:35.792Z,7.30
2023-03-15T05:09:35.817Z,8.30
2023-03-15T05:10:35.728Z,9.50
2023-03-15T05:11:35.675Z,17.30
2023-03-15T05:12:35.635Z,6.10
2023-03-15T05:13:35.656Z,9.00
2023-03-15T05:14:35.615Z,11.00
2023-03-15T05:15:35.655Z,7.00
2023-03-15T05:16:35.665Z,4.40
2023-03-15T05:17:35.587Z,5.10
2023-03-15T05:18:35.611Z,4.40
2023-03-15T05:19:35.556Z,5.90
2023-03-15T05:20:35.544Z,3.70
2023-03-15T05:21:35.557Z,5.20
2023-03-15T05:22:35.524Z,7.20
2023-03-15T05:23:35.566Z,5.20
2023-03-15T05:24:35.483Z,3.20
2023-03-15T05:25:37.507Z,3.30
2023-03-15T05:26:35.473Z,4.30
2023-03-15T05:27:35.444Z,4.20
2023-03-15T05:28:35.452Z,4.20
2023-03-15T05:29:35.599Z,4.00
2023-03-15T05:30:35.418Z,3.70
2023-03-15T05:31:35.463Z,4.00
2023-03-15T05:32:35.417Z,4.50
2023-03-15T05:33:35.393Z,4.70
2023-03-15T05:34:35.359Z,5.80
2023-03-15T05:35:35.382Z,9.20
2023-03-15T05:36:35.351Z,6.10
2023-03-15T05:37:35.315Z,8.00
2023-03-15T05:38:35.392Z,5.30
2023-03-15T05:39:35.288Z,8.80
2023-03-15T05:40:35.281Z,9.20
2023-03-15T05:41:36.032Z,9.00
2023-03-15T05:42:35.270Z,9.00
2023-03-15T05:43:35.284Z,6.90
2023-03-15T05:44:35.239Z,13.70
2023-03-15T05:45:35.265Z,6.80
2023-03-15T05:46:35.218Z,9.70
2023-03-15T05:47:35.207Z,7.00
2023-03-15T05:48:35.226Z,9.00
2023-03-15T05:49:35.173Z,5.30
2023-03-15T05:50:35.161Z,7.40
2023-03-15T05:51:35.178Z,9.20
2023-03-15T05:52:35.126Z,7.40
2023-03-15T05:53:35.137Z,8.70
2023-03-15T05:54:35.095Z,4.50
2023-03-15T05:55:35.846Z,5.60
2023-03-15T05:56:35.126Z,9.60
2023-03-15T05:57:35.053Z,9.70
2023-03-15T05:58:35.088Z,8.70
2023-03-15T05:59:35.034Z,5.90
2023-03-15T06:00:35.016Z,5.30
2023-03-15T06:01:35.005Z,10.30
2023-03-15T06:02:34.986Z,7.30
2023-03-15T06:03:35.060Z,5.50
2023-03-15T06:04:35.203Z,6.60
2023-03-15T06:05:34.960Z,4.70
2023-03-15T06:06:35.017Z,6.00
2023-03-15T06:07:34.984Z,5.00
2023-03-15T06:08:36.011Z,7.60
2023-03-15T06:09:35.577Z,10.20
2023-03-15T06:10:35.873Z,6.00
2023-03-15T06:11:35.111Z,5.60
2023-03-15T06:12:42.332Z,7.10
2023-03-15T06:13:35.156Z,4.50
2023-03-15T06:14:35.001Z,3.80
2023-03-15T06:15:34.838Z,7.00
2023-03-15T06:16:34.875Z,7.90
2023-03-15T06:17:34.998Z,3.80
2023-03-15T06:18:35.017Z,5.10
2023-03-15T06:19:36.286Z,9.00
2023-03-15T06:20:34.760Z,6.90
2023-03-15T06:21:34.779Z,8.40
2023-03-15T06:22:34.893Z,8.10
2023-03-15T06:23:34.760Z,9.20
2023-03-15T06:24:34.711Z,3.70
2023-03-15T06:25:34.768Z,5.00
2023-03-15T06:26:34.801Z,4.70
2023-03-15T06:27:34.789Z,6.10
2023-03-15T06:28:34.687Z,3.90
2023-03-15T06:29:34.686Z,6.90
2023-03-15T06:30:34.754Z,5.40
2023-03-15T06:31:34.620Z,3.00
2023-03-15T06:32:34.728Z,5.10
2023-03-15T06:33:34.767Z,3.10
2023-03-15T06:34:34.594Z,5.10
2023-03-15T06:35:34.566Z,3.70
2023-03-15T06:36:34.577Z,6.70
2023-03-15T06:37:35.707Z,7.20
2023-03-15T06:38:34.620Z,4.30
2023-03-15T06:39:34.521Z,6.90
2023-03-15T06:40:35.876Z,3.40
2023-03-15T06:41:34.685Z,5.10
2023-03-15T06:42:35.375Z,3.90
2023-03-15T06:43:48.909Z,10.40
2023-03-15T06:44:34.572Z,6.70
2023-03-15T06:45:38.228Z,8.20
2023-03-15T06:46:36.224Z,2.60
2023-03-15T06:47:35.148Z,6.60
2023-03-15T06:48:35.788Z,8.30
2023-03-15T06:49:34.475Z,3.40
2023-03-15T06:50:45.980Z,7.90
2023-03-15T06:51:35.373Z,3.50
2023-03-15T06:52:34.385Z,4.70
2023-03-15T06:53:34.361Z,4.40
2023-03-15T06:54:34.323Z,8.50
2023-03-15T06:55:34.313Z,6.50
2023-03-15T06:56:34.315Z,3.10
2023-03-15T06:57:34.313Z,4.80
2023-03-15T06:58:34.308Z,5.10
2023-03-15T06:59:34.254Z,7.60
2023-03-15T07:00:34.249Z,6.80
2023-03-15T07:01:34.279Z,4.10
2023-03-15T07:02:34.276Z,5.20
2023-03-15T07:03:34.241Z,7.20
2023-03-15T07:04:34.200Z,6.80
2023-03-15T07:05:34.238Z,7.60
2023-03-15T07:06:34.172Z,5.40
2023-03-15T07:07:34.164Z,4.30
2023-03-15T07:08:34.150Z,4.90
2023-03-15T07:09:34.168Z,3.20
2023-03-15T07:10:34.126Z,6.40
2023-03-15T07:11:34.128Z,4.60
2023-03-15T07:12:34.096Z,5.30
2023-03-15T07:13:34.117Z,3.90
2023-03-15T07:14:34.091Z,9.20
2023-03-15T07:15:34.063Z,6.30
2023-03-15T07:16:34.058Z,3.30
2023-03-15T07:17:34.036Z,5.00
2023-03-15T07:18:34.022Z,4.10
2023-03-15T07:19:35.792Z,10.70
2023-03-15T07:20:35.609Z,5.10
2023-03-15T07:21:33.988Z,6.10
2023-03-15T07:22:33.966Z,5.90
2023-03-15T07:23:33.977Z,6.10
2023-03-15T07:24:33.974Z,5.40
2023-03-15T07:25:44.924Z,5.30
2023-03-15T07:26:34.913Z,6.90
2023-03-15T07:27:33.927Z,11.20
2023-03-15T07:28:33.883Z,7.80
2023-03-15T07:29:33.920Z,4.70
2023-03-15T07:30:33.874Z,8.50
2023-03-15T07:31:33.853Z,3.50
2023-03-15T07:32:34.046Z,6.60
2023-03-15T07:33:33.840Z,4.80
2023-03-15T07:34:33.836Z,6.20
2023-03-15T07:35:33.875Z,9.20
2023-03-15T07:36:33.794Z,7.70
2023-03-15T07:37:33.783Z,5.50
2023-03-15T07:38:33.760Z,8.40
2023-03-15T07:39:33.773Z,5.30
2023-03-15T07:40:33.746Z,2.80
2023-03-15T07:41:33.719Z,3.00
2023-03-15T07:42:33.706Z,4.10
2023-03-15T07:43:33.690Z,7.70
2023-03-15T07:44:33.724Z,3.60
2023-03-15T07:45:33.679Z,3.20
2023-03-15T07:46:33.715Z,6.10
2023-03-15T07:47:33.647Z,5.40
2023-03-15T07:48:33.637Z,8.00
2023-03-15T07:49:33.670Z,7.80
2023-03-15T07:50:33.607Z,5.10
2023-03-15T07:51:33.610Z,3.50
2023-03-15T07:52:33.575Z,6.00
2023-03-15T07:53:33.581Z,6.00
2023-03-15T07:54:33.596Z,7.30
2023-03-15T07:55:33.544Z,9.50
2023-03-15T07:56:33.524Z,9.60
2023-03-15T07:57:33.525Z,3.80
2023-03-15T07:58:33.495Z,6.50
2023-03-15T07:59:37.677Z,4.80
2023-03-15T08:00:33.488Z,4.70
2023-03-15T08:01:33.491Z,6.80
2023-03-15T08:02:33.543Z,7.10
2023-03-15T08:03:33.505Z,5.80
2023-03-15T08:04:35.665Z,4.00
2023-03-15T08:05:33.404Z,6.20
2023-03-15T08:06:33.412Z,3.70
2023-03-15T08:07:33.400Z,6.80
2023-03-15T08:08:33.392Z,8.90
2023-03-15T08:09:33.485Z,9.50
2023-03-15T08:10:33.340Z,4.40
2023-03-15T08:11:33.332Z,6.00
2023-03-15T08:12:33.321Z,5.60
2023-03-15T08:13:33.348Z,4.00
2023-03-15T08:14:33.310Z,7.60
2023-03-15T08:15:33.274Z,3.20
2023-03-15T08:16:33.287Z,5.00
2023-03-15T08:17:33.241Z,3.80
2023-03-15T08:18:33.231Z,2.80
2023-03-15T08:19:33.258Z,6.30
2023-03-15T08:20:33.211Z,4.10
2023-03-15T08:21:33.202Z,11.50
2023-03-15T08:22:33.182Z,4.10
2023-03-15T08:23:33.170Z,4.90
2023-03-15T08:24:33.211Z,6.10
2023-03-15T08:25:33.206Z,4.50
2023-03-15T08:26:33.139Z,8.00
2023-03-15T08:27:33.138Z,5.90
2023-03-15T08:28:33.125Z,9.40
2023-03-15T08:29:33.130Z,8.20
2023-03-15T08:30:33.090Z,7.30
2023-03-15T08:31:33.238Z,7.20
2023-03-15T08:32:33.158Z,3.80
2023-03-15T08:33:33.044Z,14.10
2023-03-15T08:34:33.061Z,7.70
2023-03-15T08:35:33.157Z,3.70
2023-03-15T08:36:33.094Z,5.80
2023-03-15T08:37:33.008Z,4.80
2023-03-15T08:38:32.991Z,4.80
2023-03-15T08:39:33.002Z,8.10
2023-03-15T08:40:32.954Z,4.10
2023-03-15T08:41:32.948Z,5.90
2023-03-15T08:42:32.938Z,5.60
2023-03-15T08:43:32.923Z,5.60
2023-03-15T08:44:35.190Z,4.10
2023-03-15T08:45:37.430Z,7.60
2023-03-15T08:46:33.869Z,5.50
2023-03-15T08:47:32.869Z,3.60
2023-03-15T08:48:32.867Z,4.70
2023-03-15T08:49:32.874Z,8.80
2023-03-15T08:50:32.823Z,4.20
2023-03-15T08:51:32.826Z,6.80
2023-03-15T08:52:32.801Z,3.50
2023-03-15T08:53:32.793Z,6.10
2023-03-15T08:54:32.803Z,7.80
2023-03-15T08:55:32.783Z,3.50
2023-03-15T08:56:32.745Z,5.10
2023-03-15T08:57:32.740Z,3.50
2023-03-15T08:58:32.714Z,5.10
2023-03-15T08:59:32.730Z,3.10
2023-03-15T09:00:32.796Z,4.40
2023-03-15T09:01:32.684Z,5.40
2023-03-15T09:02:32.698Z,8.50
2023-03-15T09:03:32.674Z,4.70
2023-03-15T09:04:32.709Z,6.30
2023-03-15T09:05:32.632Z,5.90
2023-03-15T09:06:32.612Z,4.90
2023-03-15T09:07:32.605Z,3.00
2023-03-15T09:08:32.586Z,3.20
2023-03-15T09:09:32.610Z,7.60
2023-03-15T09:10:32.567Z,8.90
2023-03-15T09:11:32.570Z,2.60
2023-03-15T09:12:32.546Z,4.70
2023-03-15T09:13:32.540Z,4.00
2023-03-15T09:14:32.541Z,7.10
2023-03-15T09:15:32.501Z,9.70
2023-03-15T09:16:32.503Z,4.40
2023-03-15T09:17:32.473Z,5.30
2023-03-15T09:18:32.468Z,9.40
2023-03-15T09:19:32.846Z,7.90
2023-03-15T09:20:32.441Z,4.00
2023-03-15T09:21:32.427Z,10.30
2023-03-15T09:22:38.994Z,7.20
2023-03-15T09:23:33.416Z,4.50
2023-03-15T09:24:32.411Z,6.50
2023-03-15T09:25:32.385Z,5.50
2023-03-15T09:26:32.364Z,2.40
2023-03-15T09:27:32.350Z,5.70
2023-03-15T09:28:32.331Z,3.50
2023-03-15T09:29:32.367Z,6.30
2023-03-15T09:30:32.424Z,9.30
2023-03-15T09:31:32.333Z,5.50
2023-03-15T09:32:32.329Z,3.80
2023-03-15T09:33:32.291Z,4.20
2023-03-15T09:34:39.848Z,4.40
2023-03-15T09:35:33.291Z,8.70
2023-03-15T09:36:32.237Z,7.30
2023-03-15T09:37:40.606Z,9.50
2023-03-15T09:38:33.377Z,2.50
2023-03-15T09:39:32.225Z,7.50
2023-03-15T09:40:32.209Z,1.80
2023-03-15T09:41:32.170Z,7.60
2023-03-15T09:42:32.155Z,6.40
2023-03-15T09:43:32.175Z,2.70
2023-03-15T09:44:32.154Z,6.20
2023-03-15T09:45:32.140Z,5.20
2023-03-15T09:46:32.138Z,11.40
2023-03-15T09:47:32.093Z,4.30
2023-03-15T09:48:32.098Z,5.60
2023-03-15T09:49:32.152Z,5.40
2023-03-15T09:50:32.045Z,6.20
2023-03-15T09:51:32.045Z,4.80
2023-03-15T09:52:32.030Z,3.90
2023-03-15T09:53:32.131Z,9.20
2023-03-15T09:54:32.115Z,4.60
2023-03-15T09:55:32.066Z,5.20
2023-03-15T09:56:31.964Z,15.80
2023-03-15T09:57:32.094Z,9.70
2023-03-15T09:58:31.934Z,2.40
2023-03-15T09:59:31.937Z,4.50
2023-03-15T10:00:31.964Z,7.40
2023-03-15T10:01:31.998Z,9.10
2023-03-15T10:02:31.935Z,2.80
2023-03-15T10:03:31.983Z,12.90
2023-03-15T10:04:32.036Z,4.40
2023-03-15T10:05:31.927Z,8.60
2023-03-15T10:06:32.933Z,4.70
2023-03-15T10:07:31.832Z,11.10
2023-03-15T10:08:31.987Z,3.10
2023-03-15T10:09:31.826Z,5.10
2023-03-15T10:10:31.940Z,5.60
2023-03-15T10:11:31.803Z,4.80
2023-03-15T10:12:31.758Z,7.50
2023-03-15T10:13:31.968Z,4.50
2023-03-15T10:14:31.905Z,2.60
2023-03-15T10:15:31.874Z,4.60
2023-03-15T10:16:34.800Z,4.80
2023-03-15T10:17:35.986Z,2.30
2023-03-15T10:18:31.790Z,6.40
2023-03-15T10:19:32.594Z,4.70
2023-03-15T10:20:31.780Z,5.30
2023-03-15T10:21:31.785Z,5.60
2023-03-15T10:22:31.878Z,5.50
2023-03-15T10:23:31.752Z,1.90
2023-03-15T10:24:32.031Z,7.40
2023-03-15T10:25:31.814Z,6.30
2023-03-15T10:26:31.633Z,3.50
2023-03-15T10:27:31.574Z,4.40
2023-03-15T10:28:33.830Z,3.80
2023-03-15T10:29:31.735Z,7.40
2023-03-15T10:30:31.584Z,3.50
2023-03-15T10:31:41.446Z,6.30
2023-03-15T10:32:32.503Z,5.10
2023-03-15T10:33:31.504Z,6.60
2023-03-15T10:34:31.470Z,8.40
2023-03-15T10:35:31.483Z,4.40
2023-03-15T10:36:31.485Z,5.10
2023-03-15T10:37:31.437Z,4.40
2023-03-15T10:38:31.437Z,7.60
2023-03-15T10:39:31.408Z,5.50
2023-03-15T10:40:31.424Z,6.50
2023-03-15T10:41:31.383Z,5.00
2023-03-15T10:42:31.384Z,8.00
2023-03-15T10:43:31.358Z,12.70
2023-03-15T10:44:31.347Z,6.10
2023-03-15T10:45:31.432Z,5.70
2023-03-15T10:46:31.380Z,2.80
2023-03-15T10:47:31.311Z,5.00
2023-03-15T10:48:31.290Z,5.40
2023-03-15T10:49:31.305Z,9.80
2023-03-15T10:50:31.293Z,8.60
2023-03-15T10:51:31.249Z,6.70
2023-03-15T10:52:31.232Z,5.50
2023-03-15T10:53:31.244Z,7.90
2023-03-15T10:54:31.202Z,6.10
2023-03-15T10:55:31.230Z,1.60
2023-03-15T10:56:31.187Z,17.00
2023-03-15T10:57:31.251Z,9.50
2023-03-15T10:58:31.162Z,4.90
2023-03-15T10:59:31.131Z,5.10
2023-03-15T11:00:31.184Z,10.00
2023-03-15T11:01:31.186Z,4.10
2023-03-15T11:02:31.160Z,4.10
2023-03-15T11:03:31.104Z,6.50
2023-03-15T11:04:33.720Z,4.20
2023-03-15T11:05:31.092Z,4.80
2023-03-15T11:06:31.054Z,14.40
2023-03-15T11:07:31.048Z,92.50
2023-03-15T11:08:31.023Z,240.30
2023-03-15T11:09:31.001Z,85.70
2023-03-15T11:10:31.041Z,34.70
2023-03-15T11:11:30.982Z,22.60
2023-03-15T11:12:30.978Z,5.50
2023-03-15T11:13:30.956Z,9.90
2023-03-15T11:14:30.951Z,8.80
2023-03-15T11:15:30.951Z,3.70
2023-03-15T11:16:30.960Z,7.90
2023-03-15T11:17:30.907Z,5.90
2023-03-15T11:18:30.906Z,4.50
2023-03-15T11:19:30.871Z,5.70
2023-03-15T11:20:30.899Z,7.40
2023-03-15T11:21:30.867Z,4.50
2023-03-15T11:22:30.853Z,3.00
2023-03-15T11:23:30.827Z,6.00
2023-03-15T11:24:30.860Z,6.00
2023-03-15T11:25:30.827Z,18.40
2023-03-15T11:26:32.930Z,15.30
2023-03-15T11:27:30.783Z,25.10
2023-03-15T11:28:30.773Z,8.90
2023-03-15T11:29:30.751Z,5.40
2023-03-15T11:30:30.766Z,14.10
2023-03-15T11:31:30.739Z,8.70
2023-03-15T11:32:30.737Z,17.60
2023-03-15T11:33:30.717Z,6.80
2023-03-15T11:34:30.679Z,15.90
2023-03-15T11:35:30.734Z,7.00
2023-03-15T11:36:30.660Z,8.90
2023-03-15T11:37:30.643Z,15.00
2023-03-15T11:38:30.634Z,37.30
2023-03-15T11:39:30.611Z,15.70
2023-03-15T11:40:30.640Z,5.50
2023-03-15T11:41:30.592Z,13.40
2023-03-15T11:42:30.588Z,8.10
2023-03-15T11:43:30.583Z,8.40
2023-03-15T11:44:30.569Z,7.20
2023-03-15T11:45:30.584Z,14.00
2023-03-15T11:46:30.531Z,11.70
2023-03-15T11:47:30.513Z,10.10
2023-03-15T11:48:30.502Z,15.10
2023-03-15T11:49:30.483Z,38.90
2023-03-15T11:50:30.514Z,15.70
2023-03-15T11:51:30.463Z,14.50
2023-03-15T11:52:30.449Z,13.10
2023-03-15T11:53:30.433Z,21.10
2023-03-15T11:54:31.386Z,16.70
2023-03-15T11:55:30.493Z,16.90
2023-03-15T11:56:30.433Z,11.80
2023-03-15T11:57:30.389Z,8.40
2023-03-15T11:58:30.382Z,16.30
2023-03-15T11:59:30.393Z,13.40
2023-03-15T12:00:30.360Z,15.50
2023-03-15T12:01:30.371Z,9.50
2023-03-15T12:02:30.450Z,12.90
2023-03-15T12:03:30.421Z,7.00
2023-03-15T12:04:30.343Z,23.50
2023-03-15T12:05:30.282Z,5.50
2023-03-15T12:06:30.272Z,22.10
2023-03-15T12:07:30.284Z,40.40
2023-03-15T12:08:30.240Z,26.60
2023-03-15T12:09:30.230Z,9.80
2023-03-15T12:10:30.241Z,14.20
2023-03-15T12:11:30.200Z,22.70
2023-03-15T12:12:30.229Z,30.80
2023-03-15T12:13:30.196Z,11.50
2023-03-15T12:14:30.162Z,4.80
2023-03-15T12:15:30.188Z,28.80
2023-03-15T12:16:30.203Z,51.80
2023-03-15T12:17:30.120Z,32.60
2023-03-15T12:18:30.112Z,58.00
2023-03-15T12:19:30.089Z,22.20
2023-03-15T12:20:30.129Z,15.60
2023-03-15T12:21:30.060Z,21.20
2023-03-15T12:22:30.059Z,16.50
2023-03-15T12:23:30.040Z,13.80
2023-03-15T12:24:30.038Z,4.00
2023-03-15T12:25:30.047Z,9.40
2023-03-15T12:26:30.028Z,15.60
2023-03-15T12:27:29.982Z,25.00
2023-03-15T12:28:29.979Z,7.00
2023-03-15T12:29:29.981Z,7.50
2023-03-15T12:30:30.040Z,2.60
2023-03-15T12:31:29.944Z,1.30
2023-03-15T12:32:30.025Z,10.40
2023-03-15T12:33:29.914Z,8.90
2023-03-15T12:34:29.912Z,6.30
2023-03-15T12:35:29.918Z,5.50
2023-03-15T12:36:29.880Z,6.60
2023-03-15T12:37:29.851Z,7.90
2023-03-15T12:38:29.855Z,10.70
2023-03-15T12:39:29.858Z,3.20
2023-03-15T12:40:29.883Z,4.10
2023-03-15T12:41:29.809Z,2.30
2023-03-15T12:42:29.790Z,4.80
2023-03-15T12:43:29.773Z,7.70
2023-03-15T12:44:29.766Z,5.80
2023-03-15T12:45:29.882Z,2.00
2023-03-15T12:46:29.781Z,3.90
2023-03-15T12:47:29.710Z,1.70
2023-03-15T12:48:29.724Z,3.50
2023-03-15T12:49:29.691Z,11.50
2023-03-15T12:50:29.722Z,3.80
2023-03-15T12:51:29.693Z,3.00
2023-03-15T12:52:29.660Z,4.70
2023-03-15T12:53:29.677Z,4.50
2023-03-15T12:54:29.647Z,3.50
2023-03-15T12:55:29.650Z,4.50
2023-03-15T12:56:29.634Z,5.30
2023-03-15T12:57:30.302Z,3.10
2023-03-15T12:58:29.618Z,3.10
2023-03-15T12:59:29.569Z,4.70
2023-03-15T13:00:29.590Z,6.10
2023-03-15T13:01:29.632Z,6.70
2023-03-15T13:02:41.812Z,3.30
2023-03-15T13:03:30.543Z,3.50
2023-03-15T13:04:29.520Z,1.10
2023-03-15T13:05:29.508Z,4.90
2023-03-15T13:06:29.515Z,5.00
2023-03-15T13:07:30.554Z,1.80
2023-03-15T13:08:29.464Z,2.20
2023-03-15T13:09:29.431Z,2.00
2023-03-15T13:10:31.254Z,2.30
2023-03-15T13:11:29.446Z,1.10
2023-03-15T13:12:29.399Z,1.50
2023-03-15T13:13:29.419Z,6.50
2023-03-15T13:14:29.369Z,3.60